Data for 10/14/2013

Time Sea-Level Adjusted Pressure Absolute Pressure Temperature Relative Humidity Dew Point   
(mb) (inHg) (mb) (inHg) (C) (F) (%) (C) (F)
00:05 1023 30.21 852 25.16 1.1 33.9 94 0.2 32.4
00:10 1023 30.21 852 25.16 1.1 33.9 94 0.2 32.4
00:15 1023 30.21 852 25.16 1.1 33.9 94 0.2 32.3
00:20 1023 30.21 852 25.16 1.1 33.9 94 0.2 32.3
00:25 1023 30.21 852 25.16 1.1 33.9 94 0.2 32.4
00:30 1023 30.21 852 25.16 1.1 34 94 0.2 32.4
00:35 1023 30.21 852 25.16 1.2 34.1 94 0.3 32.5
00:40 1023 30.21 852 25.16 1.1 34 94 0.2 32.3
00:45 1023 30.21 852 25.16 1.1 34 94 0.2 32.3
00:50 1023 30.21 852 25.16 1 33.8 94 0 32.1
00:55 1023 30.21 852 25.16 0.9 33.6 94 0 32
01:00 1023 30.21 852 25.16 0.9 33.5 94 -0 32
01:05 1023 30.21 852 25.16 0.8 33.4 94 -0 31.9
01:10 1023 30.21 852 25.16 0.7 33.2 95 -0.1 31.8
01:15 1023 30.21 852 25.16 0.6 33.1 95 -0.1 31.8
01:20 1023 30.21 852 25.16 0.6 33.1 95 -0.1 31.8
01:25 1023 30.21 852 25.16 0.5 32.9 95 -0.2 31.7
01:30 1023 30.21 852 25.16 0.5 32.8 95 -0.2 31.6
01:35 1023 30.21 852 25.16 0.4 32.7 95 -0.3 31.5
01:40 1023 30.21 852 25.16 0.3 32.6 95 -0.3 31.5
01:45 1023 30.21 852 25.16 0.3 32.6 96 -0.3 31.5
01:50 1023 30.21 852 25.16 0.3 32.6 96 -0.3 31.5
01:55 1023 30.21 852 25.16 0.3 32.5 96 -0.3 31.5
02:00 1023 30.21 852 25.16 0.4 32.7 96 -0.2 31.7
02:05 1023 30.21 852 25.16 0.4 32.8 96 -0.2 31.7
02:10 1023 30.21 852 25.16 0.4 32.7 96 -0.2 31.6
02:15 1023 30.21 852 25.16 0.3 32.6 96 -0.2 31.6
02:20 1023 30.21 852 25.16 0.4 32.6 96 -0.2 31.7
02:25 1023 30.21 852 25.16 0.4 32.7 96 -0.2 31.7
02:30 1023 30.21 852 25.16 0.4 32.7 96 -0.2 31.7
02:35 1023 30.21 852 25.16 0.4 32.7 96 -0.2 31.7
02:40 1023 30.21 852 25.16 0.5 32.8 96 -0.1 31.8
02:45 1023 30.21 852 25.16 0.4 32.7 96 -0.2 31.7
02:50 1023 30.21 852 25.16 0.4 32.8 96 -0.1 31.7
02:55 1023 30.21 852 25.16 0.4 32.8 96 -0.2 31.7
03:00 1023 30.21 852 25.16 0.5 32.8 96 -0.1 31.8
03:05 1023 30.21 852 25.16 0.4 32.8 96 -0.2 31.7
03:10 1023 30.21 852 25.16 0.3 32.6 96 -0.3 31.5
03:15 1023 30.21 852 25.16 0.3 32.5 96 -0.3 31.5
03:20 1023 30.21 852 25.16 0.3 32.5 96 -0.3 31.5
03:25 1023 30.21 852 25.16 0.3 32.5 96 -0.3 31.5
03:30 1023 30.21 852 25.16 0.4 32.6 96 -0.2 31.6
03:35 1023 30.21 852 25.16 0.3 32.6 96 -0.2 31.6
03:40 1023 30.21 852 25.16 0.4 32.7 96 -0.1 31.7
03:45 1023 30.21 852 25.16 0.4 32.8 96 -0.1 31.8
03:50 1023 30.21 852 25.16 0.4 32.8 96 -0.1 31.8
03:55 1023 30.21 852 25.16 0.4 32.8 96 -0.2 31.7
04:00 1023 30.21 852 25.16 0.5 32.8 96 -0.1 31.8
04:05 1023 30.21 852 25.16 0.5 32.9 96 -0.1 31.8
04:10 1023 30.21 852 25.16 0.4 32.8 96 -0.1 31.8
04:15 1023 30.21 852 25.16 0.5 32.8 96 -0.1 31.8
04:20 1023 30.21 852 25.16 0.5 32.9 96 -0.1 31.8
04:25 1023 30.21 852 25.16 0.4 32.8 96 -0.2 31.7
04:30 1023 30.21 852 25.16 0.4 32.7 96 -0.2 31.6
04:35 1023 30.21 852 25.16 0.4 32.7 96 -0.2 31.6
04:40 1023 30.21 852 25.16 0.3 32.6 96 -0.3 31.5
04:45 1023 30.21 852 25.16 0.4 32.7 96 -0.2 31.6
04:50 1023 30.21 853 25.19 0.4 32.8 96 -0.2 31.7
04:55 1023 30.21 853 25.19 0.4 32.8 96 -0.2 31.7
05:00 1023 30.21 853 25.19 0.4 32.7 96 -0.2 31.6
05:05 1023 30.21 853 25.19 0.3 32.6 96 -0.3 31.5
05:10 1023 30.21 853 25.19 0.3 32.5 96 -0.3 31.4
05:15 1023 30.21 853 25.19 0.2 32.4 96 -0.3 31.4
05:20 1023 30.21 853 25.19 0.2 32.4 96 -0.3 31.4
05:25 1024 30.24 853 25.19 0.3 32.5 96 -0.3 31.4
05:30 1024 30.24 853 25.19 0.2 32.4 96 -0.3 31.4
05:35 1024 30.24 853 25.19 0.2 32.4 96 -0.3 31.4
05:40 1024 30.24 853 25.19 0.3 32.5 96 -0.3 31.5
05:45 1024 30.24 853 25.19 0.2 32.4 96 -0.3 31.5
05:50 1024 30.24 853 25.19 0.2 32.4 96 -0.3 31.4
05:55 1024 30.24 853 25.19 0.3 32.5 96 -0.3 31.5
06:00 1024 30.24 853 25.19 0.3 32.5 96 -0.3 31.4
06:05 1024 30.24 853 25.19 0.3 32.5 96 -0.3 31.4
06:10 1024 30.24 853 25.19 0.3 32.5 96 -0.3 31.5
06:15 1024 30.24 853 25.19 0.2 32.4 96 -0.3 31.4
06:20 1024 30.24 853 25.19 0.2 32.3 96 -0.4 31.2
06:25 1024 30.24 853 25.19 0.1 32.2 96 -0.5 31.2
06:30 1024 30.24 853 25.19 0.1 32.2 96 -0.5 31.2
06:35 1024 30.24 853 25.19 0.1 32.2 96 -0.4 31.2
06:40 1024 30.24 853 25.19 0.1 32.2 96 -0.4 31.2
06:45 1024 30.24 853 25.19 0.1 32.2 96 -0.4 31.2
06:50 1024 30.24 853 25.19 0.1 32.2 96 -0.4 31.3
06:55 1024 30.24 853 25.19 0.2 32.3 96 -0.3 31.4
07:00 1024 30.24 853 25.19 0.2 32.4 96 -0.3 31.4
07:05 1024 30.24 853 25.19 0.3 32.5 95 -0.4 31.3
07:10 1024 30.24 853 25.19 0.4 32.8 94 -0.5 31.2
07:15 1024 30.24 853 25.19 0.5 32.9 94 -0.5 31.2
07:20 1024 30.24 854 25.22 0.4 32.8 93 -0.6 30.9
07:25 1024 30.24 854 25.22 0.5 33 92 -0.6 30.9
07:30 1025 30.27 854 25.22 0.5 33 92 -0.6 30.9
07:35 1025 30.27 854 25.22 0.6 33.1 91 -0.8 30.6
07:40 1025 30.27 854 25.22 0.6 33.1 92 -0.6 30.9
07:45 1025 30.27 854 25.22 0.6 33 91 -0.7 30.7
07:50 1025 30.27 854 25.22 0.6 33.1 91 -0.7 30.8
07:55 1025 30.27 854 25.22 0.6 33.1 91 -0.7 30.8
08:00 1025 30.27 854 25.22 0.6 33.1 91 -0.7 30.8
08:05 1025 30.27 854 25.22 0.7 33.2 90 -0.8 30.5
08:10 1025 30.27 854 25.22 0.7 33.3 90 -0.8 30.6
08:15 1025 30.27 854 25.22 0.7 33.3 91 -0.7 30.8
08:20 1025 30.27 854 25.22 0.7 33.3 90 -0.7 30.8
08:25 1025 30.27 854 25.22 0.7 33.3 90 -0.7 30.7
08:30 1025 30.27 854 25.22 0.7 33.3 91 -0.6 30.9
08:35 1025 30.27 854 25.22 0.7 33.3 90 -0.7 30.8
08:40 1025 30.27 854 25.22 0.8 33.4 90 -0.7 30.7
08:45 1025 30.27 854 25.22 0.8 33.4 89 -0.8 30.5
08:50 1025 30.27 854 25.22 0.8 33.4 89 -0.7 30.7
08:55 1025 30.27 855 25.25 0.8 33.5 89 -0.7 30.7
09:00 1025 30.27 855 25.25 0.9 33.5 91 -0.5 31.1
09:05 1025 30.27 855 25.25 0.9 33.6 89 -0.7 30.7
09:10 1025 30.27 855 25.25 1 33.7 88 -0.7 30.7
09:15 1025 30.27 855 25.25 1.1 34 87 -0.9 30.4
09:20 1025 30.27 855 25.25 1.2 34.2 85 -1 30.1
09:25 1025 30.27 855 25.25 1.4 34.5 86 -0.6 30.9
09:30 1026 30.3 855 25.25 1.6 34.9 85 -0.7 30.7
09:35 1025 30.27 855 25.25 1.6 35 83 -1 30.2
09:40 1026 30.3 855 25.25 1.6 34.9 84 -0.8 30.5
09:45 1026 30.3 855 25.25 1.7 35.1 87 -0.3 31.5
09:50 1026 30.3 855 25.25 1.8 35.3 84 -0.6 30.9
09:55 1026 30.3 855 25.25 1.8 35.2 83 -0.7 30.7
10:00 1026 30.3 855 25.25 1.8 35.3 81 -1 30.1
10:05 1026 30.3 855 25.25 1.7 35 83 -0.9 30.3
10:10 1026 30.3 855 25.25 1.9 35.4 80 -1.2 29.8
10:15 1026 30.3 855 25.25 1.9 35.4 80 -1.2 29.8
10:20 1026 30.3 855 25.25 1.8 35.3 82 -1 30.2
10:25 1026 30.3 855 25.25 1.8 35.3 79 -1.4 29.4
10:30 1026 30.3 855 25.25 1.8 35.3 82 -0.9 30.4
10:35 1026 30.3 855 25.25 2 35.6 80 -1 30.2
10:40 1026 30.3 855 25.25 2 35.6 80 -1.1 30.1
10:45 1026 30.3 855 25.25 2.1 35.7 81 -0.9 30.4
10:50 1026 30.3 855 25.25 2.3 36.2 77 -1.3 29.7
10:55 1026 30.3 855 25.25 2.3 36.2 76 -1.4 29.4
11:00 1026 30.3 855 25.25 2.3 36.1 76 -1.4 29.4
11:05 1026 30.3 855 25.25 2.3 36.2 76 -1.4 29.5
11:10 1026 30.3 855 25.25 2.4 36.3 76 -1.5 29.4
11:15 1026 30.3 855 25.25 2.6 36.7 75 -1.4 29.6
11:20 1026 30.3 855 25.25 2.7 36.9 75 -1.3 29.6
11:25 1026 30.3 855 25.25 2.9 37.2 75 -1.2 29.9
11:30 1026 30.3 855 25.25 2.7 36.9 75 -1.3 29.7
11:35 1026 30.3 855 25.25 2.7 36.9 73 -1.6 29.2
11:40 1026 30.3 855 25.25 2.7 36.8 74 -1.4 29.5
11:45 1026 30.3 855 25.25 2.9 37.3 73 -1.5 29.4
11:50 1026 30.3 855 25.25 3.1 37.5 73 -1.3 29.6
11:55 1026 30.3 855 25.25 3 37.3 74 -1.3 29.7
12:00 1026 30.3 855 25.25 2.9 37.2 71 -1.8 28.7
12:05 1026 30.3 855 25.25 2.9 37.3 72 -1.7 28.9
12:10 1026 30.3 855 25.25 3 37.3 70 -2 28.5
12:15 1026 30.3 855 25.25 2.9 37.2 70 -2.1 28.2
12:20 1026 30.3 855 25.25 3.1 37.5 69 -2.1 28.3
12:25 1026 30.3 855 25.25 3.3 37.9 69 -1.8 28.7
12:30 1026 30.3 855 25.25 3.5 38.3 67 -2.1 28.2
12:35 1026 30.3 855 25.25 3.4 38.1 67 -2.1 28.2
12:40 1026 30.3 855 25.25 3.5 38.4 67 -2.1 28.3
12:45 1026 30.3 855 25.25 3.7 38.7 66 -2 28.3
12:50 1026 30.3 855 25.25 3.3 38 67 -2.2 28.1
12:55 1026 30.3 855 25.25 3.8 38.8 64 -2.5 27.6
13:00 1026 30.3 855 25.25 4 39.2 63 -2.4 27.6
13:05 1026 30.3 856 25.28 3.8 38.8 62 -2.7 27.1
13:10 1026 30.3 856 25.28 3.7 38.7 66 -2.1 28.2
13:15 1026 30.3 856 25.28 3.4 38.2 66 -2.4 27.8
13:20 1026 30.3 856 25.28 3.2 37.8 65 -2.8 27
13:25 1026 30.3 856 25.28 3.1 37.5 67 -2.6 27.4
13:30 1026 30.3 856 25.28 3.2 37.7 65 -2.8 27
13:35 1026 30.3 856 25.28 3.2 37.7 65 -2.8 27
13:40 1026 30.3 856 25.28 3.4 38 65 -2.7 27.2
13:45 1026 30.3 856 25.28 3.6 38.4 64 -2.5 27.4
13:50 1026 30.3 856 25.28 4 39.2 63 -2.4 27.6
13:55 1026 30.3 856 25.28 4 39.2 62 -2.7 27.2
14:00 1026 30.3 856 25.28 3.8 38.8 64 -2.4 27.6
14:05 1026 30.3 856 25.28 3.4 38.2 64 -2.8 27
14:10 1026 30.3 856 25.28 3.5 38.2 64 -2.8 27
14:15 1026 30.3 856 25.28 3.4 38.1 64 -2.8 26.9
14:20 1026 30.3 856 25.28 3.3 37.9 65 -2.6 27.4
14:25 1026 30.3 856 25.28 3.2 37.7 64 -3 26.6
14:30 1027 30.33 856 25.28 3.3 37.9 65 -2.7 27.1
14:35 1027 30.33 856 25.28 3.8 38.8 63 -2.7 27.2
14:40 1027 30.33 856 25.28 3.8 38.8 64 -2.5 27.6
14:45 1027 30.33 856 25.28 3.5 38.2 65 -2.6 27.4
14:50 1027 30.33 856 25.28 3.3 38 66 -2.4 27.7
14:55 1027 30.33 856 25.28 3.1 37.6 65 -2.9 26.8
15:00 1027 30.33 856 25.28 3 37.4 66 -2.9 26.9
15:05 1027 30.33 856 25.28 2.9 37.3 66 -2.9 26.8
15:10 1027 30.33 856 25.28 3 37.4 65 -2.8 26.9
15:15 1027 30.33 856 25.28 3.2 37.8 65 -2.8 27
15:20 1027 30.33 856 25.28 3.6 38.5 65 -2.3 27.8
15:25 1027 30.33 856 25.28 3.4 38.2 65 -2.6 27.3
15:30 1027 30.33 856 25.28 3.5 38.3 63 -2.9 26.9
15:35 1027 30.33 856 25.28 3.5 38.2 63 -2.9 26.8
15:40 1027 30.33 856 25.28 3.3 38 64 -2.9 26.9
15:45 1027 30.33 856 25.28 3.1 37.6 64 -3 26.6
15:50 1027 30.33 856 25.28 3 37.5 65 -2.9 26.8
15:55 1027 30.33 856 25.28 3 37.4 65 -2.9 26.8
16:00 1027 30.33 856 25.28 3 37.4 65 -2.9 26.8
16:05 1027 30.33 856 25.28 3 37.4 65 -2.9 26.8
16:10 1027 30.33 856 25.28 3 37.5 65 -2.9 26.7
16:15 1027 30.33 856 25.28 3 37.4 66 -2.8 27
16:20 1027 30.33 856 25.28 3.1 37.5 66 -2.7 27.2
16:25 1027 30.33 856 25.28 3.1 37.6 66 -2.7 27.2
16:30 1027 30.33 856 25.28 3.1 37.6 66 -2.6 27.3
16:35 1027 30.33 856 25.28 3.3 37.9 65 -2.7 27.1
16:40 1027 30.33 856 25.28 3.2 37.8 66 -2.6 27.3
16:45 1027 30.33 856 25.28 3.1 37.6 65 -2.7 27.1
16:50 1027 30.33 856 25.28 3 37.5 66 -2.6 27.3
16:55 1027 30.33 856 25.28 3 37.4 67 -2.5 27.5
17:00 1027 30.33 856 25.28 2.9 37.3 69 -2.3 27.9
17:05 1027 30.33 856 25.28 2.9 37.2 68 -2.4 27.6
17:10 1027 30.33 856 25.28 2.9 37.2 68 -2.4 27.7
17:15 1027 30.33 856 25.28 2.9 37.1 69 -2.2 28
17:20 1027 30.33 857 25.31 2.8 37 70 -2.1 28.2
17:25 1027 30.33 857 25.31 2.7 36.8 72 -2 28.5
17:30 1027 30.33 857 25.31 2.5 36.5 73 -1.8 28.7
17:35 1027 30.33 857 25.31 2.3 36.2 74 -1.8 28.7
17:40 1028 30.36 857 25.31 2.2 36 74 -1.9 28.6
17:45 1028 30.36 857 25.31 2.2 36 74 -2 28.5
17:50 1028 30.36 857 25.31 2.2 35.9 74 -2 28.4
17:55 1028 30.36 857 25.31 2.2 35.9 73 -2.2 28.1
18:00 1028 30.36 857 25.31 2.2 36 74 -2 28.4
18:05 1028 30.36 857 25.31 2.1 35.8 74 -2.1 28.3
18:10 1028 30.36 857 25.31 2.1 35.8 74 -2.1 28.3
18:15 1028 30.36 857 25.31 2.1 35.8 74 -2 28.4
18:20 1028 30.36 857 25.31 2 35.7 75 -2 28.4
18:25 1028 30.36 857 25.31 2 35.6 74 -2.1 28.3
18:30 1028 30.36 857 25.31 2 35.6 75 -2.1 28.3
18:35 1028 30.36 857 25.31 2 35.5 74 -2.1 28.2
18:40 1028 30.36 857 25.31 1.9 35.5 75 -2 28.4
18:45 1028 30.36 857 25.31 1.9 35.5 75 -2 28.3
18:50 1028 30.36 857 25.31 1.9 35.4 76 -2 28.4
18:55 1028 30.36 857 25.31 1.9 35.4 75 -2.1 28.3
19:00 1028 30.36 857 25.31 1.9 35.4 75 -2.1 28.2
19:05 1028 30.36 857 25.31 1.9 35.4 74 -2.2 28.1
19:10 1028 30.36 857 25.31 1.8 35.3 74 -2.3 27.9
19:15 1028 30.36 857 25.31 1.8 35.2 74 -2.4 27.8
19:20 1028 30.36 857 25.31 1.8 35.3 73 -2.4 27.6
19:25 1028 30.36 857 25.31 1.8 35.3 74 -2.3 27.9
19:30 1028 30.36 857 25.31 1.7 35.1 75 -2.2 28
19:35 1028 30.36 857 25.31 1.6 35 76 -2.2 28
19:40 1028 30.36 857 25.31 1.5 34.8 76 -2.2 28
19:45 1028 30.36 857 25.31 1.5 34.6 76 -2.2 28
19:50 1028 30.36 857 25.31 1.4 34.5 77 -2.3 27.9
19:55 1028 30.36 857 25.31 1.4 34.4 77 -2.2 28
20:00 1028 30.36 857 25.31 1.3 34.4 77 -2.2 28
20:05 1028 30.36 857 25.31 1.3 34.4 78 -2.2 28.1
20:10 1028 30.36 857 25.31 1.3 34.3 78 -2.2 28.1
20:15 1028 30.36 857 25.31 1.4 34.5 76 -2.3 27.9
20:20 1028 30.36 857 25.31 1.5 34.7 77 -2.2 28.1
20:25 1028 30.36 857 25.31 1.5 34.7 76 -2.2 28
20:30 1028 30.36 857 25.31 1.5 34.8 76 -2.2 28.1
20:35 1028 30.36 857 25.31 1.5 34.8 76 -2.2 28
20:40 1028 30.36 858 25.34 1.5 34.8 76 -2.2 28
20:45 1028 30.36 858 25.34 1.6 34.8 76 -2.2 28.1
20:50 1028 30.36 858 25.34 1.5 34.8 76 -2.2 28
20:55 1028 30.36 858 25.34 1.6 34.9 75 -2.3 27.9
21:00 1028 30.36 858 25.34 1.6 34.9 76 -2.2 28
21:05 1028 30.36 858 25.34 1.6 34.9 75 -2.3 27.8
21:10 1028 30.36 858 25.34 1.7 35 75 -2.2 28
21:15 1028 30.36 858 25.34 1.6 34.9 75 -2.3 27.9
21:20 1028 30.36 858 25.34 1.6 34.9 76 -2.2 28.1
21:25 1028 30.36 858 25.34 1.6 34.9 76 -2.2 28.1
21:30 1029 30.39 858 25.34 1.6 34.9 76 -2.2 28
21:35 1029 30.39 858 25.34 1.7 35 75 -2.3 27.9
21:40 1029 30.39 858 25.34 1.7 35 76 -2.2 28.1
21:45 1029 30.39 858 25.34 1.7 35 76 -2.1 28.1
21:50 1029 30.39 858 25.34 1.6 34.9 76 -2.1 28.2
21:55 1029 30.39 858 25.34 1.6 34.9 77 -2 28.4
22:00 1029 30.39 858 25.34 1.6 34.8 78 -1.9 28.6
22:05 1029 30.39 858 25.34 1.5 34.6 79 -1.9 28.7
22:10 1029 30.39 858 25.34 1.4 34.5 80 -1.6 29.1
22:15 1029 30.39 858 25.34 1.3 34.3 82 -1.5 29.3
22:20 1029 30.39 858 25.34 1.1 34 83 -1.4 29.4
22:25 1029 30.39 858 25.34 1.1 33.9 83 -1.6 29.2
22:30 1029 30.39 858 25.34 1.1 34.1 82 -1.6 29
22:35 1029 30.39 858 25.34 1.2 34.2 81 -1.6 29.1
22:40 1029 30.39 858 25.34 1.2 34.2 80 -1.9 28.7
22:45 1029 30.39 858 25.34 1.3 34.4 80 -1.7 28.9
22:50 1029 30.39 858 25.34 1.3 34.4 80 -1.7 28.9
22:55 1029 30.39 858 25.34 1.3 34.4 81 -1.6 29.1
23:00 1029 30.39 858 25.34 1.3 34.4 81 -1.7 29
23:05 1029 30.39 858 25.34 1.3 34.3 81 -1.7 29
23:10 1029 30.39 858 25.34 1.3 34.3 81 -1.6 29.2
23:15 1029 30.39 858 25.34 1.3 34.3 82 -1.5 29.3
23:20 1029 30.39 858 25.34 1.2 34.2 82 -1.5 29.3
23:25 1029 30.39 858 25.34 1.2 34.2 82 -1.5 29.3
23:30 1029 30.39 858 25.34 1.2 34.1 83 -1.4 29.4
23:35 1029 30.39 858 25.34 1.1 34.1 83 -1.5 29.3
23:40 1029 30.39 858 25.34 1.1 34.1 83 -1.4 29.4
23:45 1029 30.39 858 25.34 1.1 34 83 -1.4 29.5
23:50 1029 30.39 858 25.34 1.1 34 83 -1.4 29.5
23:55 1028 30.36 858 25.34 1.1 34 84 -1.4 29.5
24:00 1028 30.36 858 25.34 1.1 33.9 84 -1.3 29.6